<?xml version="1.0"?>
<gpx xmlns:xsi="http://www.w3.org/2001/XMLSchema-instance" xmlns:xsd="http://www.w3.org/2001/XMLSchema" version="1.1" creator="Quo v2" xmlns="http://www.topografix.com/GPX/1/1">
  <metadata>
    <desc>GPX file generated with Quo.</desc>
    <link href="http://www.mapyx.com">
      <text>Mapyx</text>
    </link>
    <time>2016-10-09T16:39:04.8561644+01:00</time>
  </metadata>
  <trk>
    <name>Track from Segments</name>
    <trkseg>
      <trkpt lat="53.8485954847578" lon="-1.83748967897334">
        <ele>90.838921656512</ele>
        <time>2016-10-09T12:32:44.0230806</time>
        <name>WPT 001</name>
        <desc />
      </trkpt>
      <trkpt lat="53.8483510762239" lon="-1.83753926665454">
        <ele>92.1989216565125</ele>
        <time>2016-10-09T12:32:46.5086277</time>
        <name>WPT 002</name>
        <desc />
      </trkpt>
      <trkpt lat="53.8480774776499" lon="-1.83727280199176">
        <ele>93.6511095717328</ele>
        <time>2016-10-09T12:32:49.626501</time>
        <name>WPT 003</name>
        <desc />
      </trkpt>
      <trkpt lat="53.8480335421871" lon="-1.8366892842225">
        <ele>93.1231095717329</ele>
        <time>2016-10-09T12:32:51.84327</time>
        <name>WPT 004</name>
        <desc />
      </trkpt>
      <trkpt lat="53.8479753226654" lon="-1.83617878438484">
        <ele>92.5059161020849</ele>
        <time>2016-10-09T12:32:53.9021433</time>
        <name>WPT 005</name>
        <desc />
      </trkpt>
      <trkpt lat="53.8478884724567" lon="-1.83576567911782">
        <ele>91.9222818728344</ele>
        <time>2016-10-09T12:32:56.3832159</time>
        <name>WPT 006</name>
        <desc />
      </trkpt>
      <trkpt lat="53.8477294494881" lon="-1.83515829744782">
        <ele>90.7222818728344</ele>
        <time>2016-10-09T12:32:58.5246877</time>
        <name>WPT 007</name>
        <desc />
      </trkpt>
      <trkpt lat="53.8475848378193" lon="-1.83457518363082">
        <ele>89.5702818728337</ele>
        <time>2016-10-09T12:33:00.1487678</time>
        <name>WPT 008</name>
        <desc />
      </trkpt>
      <trkpt lat="53.8479865945106" lon="-1.83391695120778">
        <ele>88.9903759298655</ele>
        <time>2016-10-09T12:33:02.0484432</time>
        <name>WPT 009</name>
        <desc />
      </trkpt>
      <trkpt lat="53.8479573273762" lon="-1.83355226259697">
        <ele>88.9654066969967</ele>
        <time>2016-10-09T12:33:03.7351413</time>
        <name>WPT 010</name>
        <desc />
      </trkpt>
      <trkpt lat="53.8478707385071" lon="-1.83333372386505">
        <ele>88.8949827732197</ele>
        <time>2016-10-09T12:33:05.3199507</time>
        <name>WPT 011</name>
        <desc />
      </trkpt>
      <trkpt lat="53.8477554889918" lon="-1.83318826056788">
        <ele>88.786471503989</ele>
        <time>2016-10-09T12:33:06.5976536</time>
        <name>WPT 012</name>
        <desc />
      </trkpt>
      <trkpt lat="53.8478701974367" lon="-1.83294460206421">
        <ele>88.8520299844062</ele>
        <time>2016-10-09T12:33:08.1668048</time>
        <name>WPT 013</name>
        <desc />
      </trkpt>
      <trkpt lat="53.848416195037" lon="-1.83260194030034">
        <ele>87.0739467397022</ele>
        <time>2016-10-09T12:33:11.4573709</time>
        <name>WPT 014</name>
        <desc />
      </trkpt>
      <trkpt lat="53.8485027513476" lon="-1.83279615987921">
        <ele>86.8669844514634</ele>
        <time>2016-10-09T12:33:14.0050232</time>
        <name>WPT 015</name>
        <desc />
      </trkpt>
      <trkpt lat="53.8485612216174" lon="-1.83347690500031">
        <ele>86.8812950843283</ele>
        <time>2016-10-09T12:33:16.6278173</time>
        <name>WPT 016</name>
        <desc />
      </trkpt>
      <trkpt lat="53.848676672997" lon="-1.83376829536264">
        <ele>86.569284519291</ele>
        <time>2016-10-09T12:33:18.2749074</time>
        <name>WPT 017</name>
        <desc />
      </trkpt>
      <trkpt lat="53.8487063760656" lon="-1.8344491581556">
        <ele>86.8822445635313</ele>
        <time>2016-10-09T12:33:19.9610295</time>
        <name>WPT 018</name>
        <desc />
      </trkpt>
      <trkpt lat="53.8487646363887" lon="-1.83498398510343">
        <ele>87.1519047061932</ele>
        <time>2016-10-09T12:33:21.8778331</time>
        <name>WPT 019</name>
        <desc />
      </trkpt>
      <trkpt lat="53.8487365425816" lon="-1.8354705105597">
        <ele>87.7304606915144</ele>
        <time>2016-10-09T12:33:23.2056045</time>
        <name>WPT 020</name>
        <desc />
      </trkpt>
      <trkpt lat="53.8487083470406" lon="-1.83588407356356">
        <ele>88.3071095717355</ele>
        <time>2016-10-09T12:33:24.8184242</time>
        <name>WPT 021</name>
        <desc />
      </trkpt>
      <trkpt lat="53.8490547146079" lon="-1.83678259323712">
        <ele>87.7663640369904</ele>
        <time>2016-10-09T12:33:26.8043592</time>
        <name>WPT 022</name>
        <desc />
      </trkpt>
      <trkpt lat="53.8492277473692" lon="-1.83712241457087">
        <ele>87.4390016873408</ele>
        <time>2016-10-09T12:33:32.0992951</time>
        <name>WPT 023</name>
        <desc />
      </trkpt>
      <trkpt lat="53.8497464787211" lon="-1.83787436212648">
        <ele>86.0190506139061</ele>
        <time>2016-10-09T12:33:36.0930729</time>
        <name>WPT 024</name>
        <desc />
      </trkpt>
      <trkpt lat="53.8505383759223" lon="-1.83857663397543">
        <ele>84.8219498250768</ele>
        <time>2016-10-09T12:33:37.9944853</time>
        <name>WPT 025</name>
        <desc />
      </trkpt>
      <trkpt lat="53.8509846395725" lon="-1.83891542563005">
        <ele>84.18734953259</ele>
        <time>2016-10-09T12:33:40.2286927</time>
        <name>WPT 026</name>
        <desc />
      </trkpt>
      <trkpt lat="53.8514444997615" lon="-1.8386704367841">
        <ele>85.3510184515907</ele>
        <time>2016-10-09T12:33:48.2707241</time>
        <name>WPT 027</name>
        <desc />
      </trkpt>
      <trkpt lat="53.851588210049" lon="-1.83859691695069">
        <ele>85.859159727112</ele>
        <time>2016-10-09T12:33:50.7406872</time>
        <name>WPT 028</name>
        <desc />
      </trkpt>
      <trkpt lat="53.8518180743756" lon="-1.83842577487135">
        <ele>86.7104223598628</ele>
        <time>2016-10-09T12:33:52.1412688</time>
        <name>WPT 029</name>
        <desc />
      </trkpt>
      <trkpt lat="53.8520047631475" lon="-1.83823047473251">
        <ele>87.6976384846862</ele>
        <time>2016-10-09T12:33:53.7816005</time>
        <name>WPT 030</name>
        <desc />
      </trkpt>
      <trkpt lat="53.8521913859318" lon="-1.83798652760781">
        <ele>89.0238124123031</ele>
        <time>2016-10-09T12:34:01.9403615</time>
        <name>WPT 031</name>
        <desc />
      </trkpt>
      <trkpt lat="53.8524497149956" lon="-1.83759636357146">
        <ele>91.3500127150904</ele>
        <time>2016-10-09T12:34:05.3615487</time>
        <name>WPT 032</name>
        <desc />
      </trkpt>
      <trkpt lat="53.8525936549892" lon="-1.83769309828312">
        <ele>90.8068170017132</ele>
        <time>2016-10-09T12:34:07.1171945</time>
        <name>WPT 033</name>
        <desc />
      </trkpt>
      <trkpt lat="53.8527228191939" lon="-1.83749801409003">
        <ele>91.5428170017165</ele>
        <time>2016-10-09T12:34:08.8194237</time>
        <name>WPT 034</name>
        <desc />
      </trkpt>
      <trkpt lat="53.852938301066" lon="-1.8373269171156">
        <ele>91.9588170017128</ele>
        <time>2016-10-09T12:34:11.4077172</time>
        <name>WPT 035</name>
        <desc />
      </trkpt>
      <trkpt lat="53.8531395997915" lon="-1.83730181323746">
        <ele>91.6370341792649</ele>
        <time>2016-10-09T12:39:37.1447181+01:00</time>
        <name>WPT 036</name>
        <desc />
      </trkpt>
      <trkpt lat="53.8533553782594" lon="-1.83734962322587">
        <ele>90.90281700172</ele>
        <time>2016-10-09T12:39:38.6288635+01:00</time>
        <name>WPT 037</name>
        <desc />
      </trkpt>
      <trkpt lat="53.8536144309895" lon="-1.83749456026976">
        <ele>89.7205056916937</ele>
        <time>2016-10-09T12:39:40.0770559+01:00</time>
        <name>WPT 038</name>
        <desc />
      </trkpt>
      <trkpt lat="53.853988563109" lon="-1.8376633774911">
        <ele>88.1619792091728</ele>
        <time>2016-10-09T12:39:42.9626125+01:00</time>
        <name>WPT 039</name>
        <desc />
      </trkpt>
      <trkpt lat="53.854449045693" lon="-1.83788051201628">
        <ele>86.8450348317953</ele>
        <time>2016-10-09T12:39:51.5900775+01:00</time>
        <name>WPT 040</name>
        <desc />
      </trkpt>
      <trkpt lat="53.8547800675487" lon="-1.83807382671016">
        <ele>87.1988606498019</ele>
        <time>2016-10-09T12:39:59.7872957+01:00</time>
        <name>WPT 041</name>
        <desc />
      </trkpt>
      <trkpt lat="53.8548953766038" lon="-1.83826797614186">
        <ele>86.4116210176349</ele>
        <time>2016-10-09T12:40:01.3364544+01:00</time>
        <name>WPT 042</name>
        <desc />
      </trkpt>
      <trkpt lat="53.8549392390751" lon="-1.83880294257762">
        <ele>82.8587405922856</ele>
        <time>2016-10-09T12:40:02.6967409+01:00</time>
        <name>WPT 043</name>
        <desc />
      </trkpt>
      <trkpt lat="53.8551264184735" lon="-1.83897249444439">
        <ele>83.3315595675717</ele>
        <time>2016-10-09T12:40:12.1323609+01:00</time>
        <name>WPT 044</name>
        <desc />
      </trkpt>
      <trkpt lat="53.8552992167962" lon="-1.83914210297001">
        <ele>83.7421371457621</ele>
        <time>2016-10-09T12:40:13.7861169+01:00</time>
        <name>WPT 045</name>
        <desc />
      </trkpt>
      <trkpt lat="53.8555010044002" lon="-1.83948187452098">
        <ele>83.836457076884</ele>
        <time>2016-10-09T12:40:15.5342988+01:00</time>
        <name>WPT 046</name>
        <desc />
      </trkpt>
      <trkpt lat="53.8555161646418" lon="-1.8400656087614">
        <ele>82.3653241165749</ele>
        <time>2016-10-09T12:40:16.8517828+01:00</time>
        <name>WPT 047</name>
        <desc />
      </trkpt>
      <trkpt lat="53.8554160168474" lon="-1.84045518450403">
        <ele>81.537963840822</ele>
        <time>2016-10-09T12:40:22.2919658+01:00</time>
        <name>WPT 048</name>
        <desc />
      </trkpt>
      <trkpt lat="53.8554883087006" lon="-1.84074680547355">
        <ele>81.8926010658245</ele>
        <time>2016-10-09T12:40:28.8402494+01:00</time>
        <name>WPT 049</name>
        <desc />
      </trkpt>
      <trkpt lat="53.85587672023" lon="-1.84084263038762">
        <ele>82.3947418883709</ele>
        <time>2016-10-09T12:40:30.7485382+01:00</time>
        <name>WPT 050</name>
        <desc />
      </trkpt>
      <trkpt lat="53.8561071036586" lon="-1.84106068141542">
        <ele>82.5129765600484</ele>
        <time>2016-10-09T12:40:32.4273616+01:00</time>
        <name>WPT 051</name>
        <desc />
      </trkpt>
      <trkpt lat="53.856495192698" lon="-1.84091325941323">
        <ele>85.6295644078409</ele>
        <time>2016-10-09T12:40:40.5257927+01:00</time>
        <name>WPT 052</name>
        <desc />
      </trkpt>
      <trkpt lat="53.8568831846823" lon="-1.84069285863483">
        <ele>89.1437213410527</ele>
        <time>2016-10-09T12:40:46.0825421+01:00</time>
        <name>WPT 053</name>
        <desc />
      </trkpt>
      <trkpt lat="53.8570845485683" lon="-1.84071641943626">
        <ele>90.9598748141684</ele>
        <time>2016-10-09T12:40:47.7516256+01:00</time>
        <name>WPT 054</name>
        <desc />
      </trkpt>
      <trkpt lat="53.8574149521711" lon="-1.84044758116746">
        <ele>95.1678748141683</ele>
        <time>2016-10-09T12:40:49.7534382+01:00</time>
        <name>WPT 055</name>
        <desc />
      </trkpt>
      <trkpt lat="53.857658940576" lon="-1.84008176425153">
        <ele>99.1401869634822</ele>
        <time>2016-10-09T12:40:51.2005229+01:00</time>
        <name>WPT 056</name>
        <desc />
      </trkpt>
      <trkpt lat="53.8577018560368" lon="-1.83991131901547">
        <ele>100.311271318553</ele>
        <time>2016-10-09T12:40:52.7244826+01:00</time>
        <name>WPT 057</name>
        <desc />
      </trkpt>
      <trkpt lat="53.857730390429" lon="-1.83974092837753">
        <ele>101.3177781703</ele>
        <time>2016-10-09T12:40:54.1420479+01:00</time>
        <name>WPT 058</name>
        <desc />
      </trkpt>
      <trkpt lat="53.8576007680079" lon="-1.83959546832173">
        <ele>100.543119936209</ele>
        <time>2016-10-09T12:40:55.5908009+01:00</time>
        <name>WPT 059</name>
        <desc />
      </trkpt>
      <trkpt lat="53.8574135895581" lon="-1.83942590369379">
        <ele>99.2980522381336</ele>
        <time>2016-10-09T12:40:57.4266086+01:00</time>
        <name>WPT 060</name>
        <desc />
      </trkpt>
      <trkpt lat="53.8572261826762" lon="-1.83908606176856">
        <ele>98.8575683851607</ele>
        <time>2016-10-09T12:40:59.3900117+01:00</time>
        <name>WPT 061</name>
        <desc />
      </trkpt>
      <trkpt lat="53.8569093473842" lon="-1.83874672045357">
        <ele>97.309134774339</ele>
        <time>2016-10-09T12:41:00.9592924+01:00</time>
        <name>WPT 062</name>
        <desc />
      </trkpt>
      <trkpt lat="53.8566069574431" lon="-1.83845597922894">
        <ele>96.2163168180475</ele>
        <time>2016-10-09T12:41:02.8490035+01:00</time>
        <name>WPT 063</name>
        <desc />
      </trkpt>
      <trkpt lat="53.8563766020945" lon="-1.83826226497456">
        <ele>95.3662935005599</ele>
        <time>2016-10-09T12:41:05.2180458+01:00</time>
        <name>WPT 064</name>
        <desc />
      </trkpt>
      <trkpt lat="53.8561896513248" lon="-1.83826298582969">
        <ele>93.6448464141951</ele>
        <time>2016-10-09T12:41:07.9567629+01:00</time>
        <name>WPT 065</name>
        <desc />
      </trkpt>
      <trkpt lat="53.8555854597141" lon="-1.83811936714132">
        <ele>91.0780448097864</ele>
        <time>2016-10-09T12:41:10.7783646+01:00</time>
        <name>WPT 066</name>
        <desc />
      </trkpt>
      <trkpt lat="53.8553841608984" lon="-1.83814446858457">
        <ele>89.7820448097907</ele>
        <time>2016-10-09T12:41:12.4869712+01:00</time>
        <name>WPT 067</name>
        <desc />
      </trkpt>
      <trkpt lat="53.85524015567" lon="-1.83799907712594">
        <ele>90.0380448097881</ele>
        <time>2016-10-09T12:41:18.9235647+01:00</time>
        <name>WPT 068</name>
        <desc />
      </trkpt>
      <trkpt lat="53.8550387255093" lon="-1.83792688183943">
        <ele>89.5287742942023</ele>
        <time>2016-10-09T12:41:20.9568735+01:00</time>
        <name>WPT 069</name>
        <desc />
      </trkpt>
      <trkpt lat="53.8548085664971" lon="-1.83787912255947">
        <ele>88.6921972487512</ele>
        <time>2016-10-09T12:41:24.4421626+01:00</time>
        <name>WPT 070</name>
        <desc />
      </trkpt>
      <trkpt lat="53.8544344018331" lon="-1.83768597620502">
        <ele>88.0675599407078</ele>
        <time>2016-10-09T12:41:26.7797635+01:00</time>
        <name>WPT 071</name>
        <desc />
      </trkpt>
      <trkpt lat="53.8540457901199" lon="-1.83744424160391">
        <ele>89.4200132951814</ele>
        <time>2016-10-09T12:41:28.3455997+01:00</time>
        <name>WPT 072</name>
        <desc />
      </trkpt>
      <trkpt lat="53.853657210891" lon="-1.83722683494728">
        <ele>91.174590545506</ele>
        <time>2016-10-09T12:41:30.2876643+01:00</time>
        <name>WPT 073</name>
        <desc />
      </trkpt>
      <trkpt lat="53.8535421312243" lon="-1.8372029579414">
        <ele>91.4179649773243</ele>
        <time>2016-10-09T12:41:32.069547+01:00</time>
        <name>WPT 074</name>
        <desc />
      </trkpt>
      <trkpt lat="53.8533838760441" lon="-1.8371549252001">
        <ele>91.8511316224386</ele>
        <time>2016-10-09T12:41:45.1380972+01:00</time>
        <name>WPT 075</name>
        <desc />
      </trkpt>
      <trkpt lat="53.8530961272847" lon="-1.83705874908796">
        <ele>92.8400632301364</ele>
        <time>2016-10-09T12:41:46.8704159+01:00</time>
        <name>WPT 076</name>
        <desc />
      </trkpt>
      <trkpt lat="53.8527512512647" lon="-1.83725467320714">
        <ele>92.6831606525223</ele>
        <time>2016-10-09T12:41:48.7093533+01:00</time>
        <name>WPT 077</name>
        <desc />
      </trkpt>
      <trkpt lat="53.8524352683176" lon="-1.83754777371408">
        <ele>91.5739655245449</ele>
        <time>2016-10-09T12:41:50.6493956+01:00</time>
        <name>WPT 078</name>
        <desc />
      </trkpt>
      <trkpt lat="53.8521626570893" lon="-1.8380109612878">
        <ele>88.8731555242002</ele>
        <time>2016-10-09T12:41:52.4038092+01:00</time>
        <name>WPT 079</name>
        <desc />
      </trkpt>
      <trkpt lat="53.85184677055" lon="-1.83837701925245">
        <ele>86.9353261493818</ele>
        <time>2016-10-09T12:41:54.169616+01:00</time>
        <name>WPT 080</name>
        <desc />
      </trkpt>
      <trkpt lat="53.8514875768778" lon="-1.83862162644945">
        <ele>85.5919240173329</ele>
        <time>2016-10-09T12:41:56.2877821+01:00</time>
        <name>WPT 081</name>
        <desc />
      </trkpt>
      <trkpt lat="53.8513025146697" lon="-1.84003302789608">
        <ele>82.3326301168686</ele>
        <time>2016-10-09T12:41:59.641042+01:00</time>
        <name>WPT 082</name>
        <desc />
      </trkpt>
      <trkpt lat="53.851388864552" lon="-1.84008134321552">
        <ele>82.0984063528809</ele>
        <time>2016-10-09T12:42:01.6740087+01:00</time>
        <name>WPT 083</name>
        <desc />
      </trkpt>
      <trkpt lat="53.851388961764" lon="-1.84015430969724">
        <ele>81.9443912965884</ele>
        <time>2016-10-09T12:42:03.7668438+01:00</time>
        <name>WPT 084</name>
        <desc />
      </trkpt>
      <trkpt lat="53.8513170251566" lon="-1.84013026153788">
        <ele>82.1207121985118</ele>
        <time>2016-10-09T12:42:05.9172962+01:00</time>
        <name>WPT 085</name>
        <desc />
      </trkpt>
      <trkpt lat="53.8511303332632" lon="-1.84032555002135">
        <ele>82.1455520112809</ele>
        <time>2016-10-09T12:42:14.480162+01:00</time>
        <name>WPT 086</name>
        <desc />
      </trkpt>
      <trkpt lat="53.850914458755" lon="-1.8402047615796">
        <ele>82.7426314212482</ele>
        <time>2016-10-09T12:42:17.3529984+01:00</time>
        <name>WPT 087</name>
        <desc />
      </trkpt>
      <trkpt lat="53.8509004338619" lon="-1.84047235700634">
        <ele>82.7417348132532</ele>
        <time>2016-10-09T12:42:19.5042248+01:00</time>
        <name>WPT 088</name>
        <desc />
      </trkpt>
      <trkpt lat="53.850886117673" lon="-1.84052105542739">
        <ele>82.8289560170996</ele>
        <time>2016-10-09T12:42:21.7575192+01:00</time>
        <name>WPT 089</name>
        <desc />
      </trkpt>
      <trkpt lat="53.8506990697226" lon="-1.84044880078914">
        <ele>83.1936774225823</ele>
        <time>2016-10-09T12:42:24.3439298+01:00</time>
        <name>WPT 090</name>
        <desc />
      </trkpt>
      <trkpt lat="53.8506414493165" lon="-1.84037605436472">
        <ele>83.2238065187357</ele>
        <time>2016-10-09T12:42:31.2036051+01:00</time>
        <name>WPT 091</name>
        <desc />
      </trkpt>
      <trkpt lat="53.8505265319326" lon="-1.84047377872325">
        <ele>83.6561851900665</ele>
        <time>2016-10-09T12:42:33.6739171+01:00</time>
        <name>WPT 092</name>
        <desc />
      </trkpt>
      <trkpt lat="53.8502671263942" lon="-1.84006129729001">
        <ele>84.3167127792292</ele>
        <time>2016-10-09T12:42:47.3935353+01:00</time>
        <name>WPT 093</name>
        <desc />
      </trkpt>
      <trkpt lat="53.8500367084883" lon="-1.83981896066499">
        <ele>85.1611982190899</ele>
        <time>2016-10-09T12:42:48.7934844+01:00</time>
        <name>WPT 094</name>
        <desc />
      </trkpt>
      <trkpt lat="53.8497055591346" lon="-1.83952836923896">
        <ele>86.3017219029978</ele>
        <time>2016-10-09T12:42:56.9516369+01:00</time>
        <name>WPT 095</name>
        <desc />
      </trkpt>
      <trkpt lat="53.849431932445" lon="-1.83923756198719">
        <ele>87.2401159314946</ele>
        <time>2016-10-09T12:43:00.3879633+01:00</time>
        <name>WPT 096</name>
        <desc />
      </trkpt>
      <trkpt lat="53.8491150972117" lon="-1.83889828244836">
        <ele>88.4772185486267</ele>
        <time>2016-10-09T12:43:02.5094834+01:00</time>
        <name>WPT 097</name>
        <desc />
      </trkpt>
      <trkpt lat="53.8489279175375" lon="-1.83872875515088">
        <ele>88.9995367841602</ele>
        <time>2016-10-09T12:43:05.1559386+01:00</time>
        <name>WPT 098</name>
        <desc />
      </trkpt>
      <trkpt lat="53.8486257889769" lon="-1.83863263370162">
        <ele>90.6789216564997</ele>
        <time>2016-10-09T12:43:09.4736095+01:00</time>
        <name>WPT 099</name>
        <desc />
      </trkpt>
      <trkpt lat="53.8483812491528" lon="-1.83858493310083">
        <ele>92.0389216565003</ele>
        <time>2016-10-09T12:43:12.0192339+01:00</time>
        <name>WPT 100</name>
        <desc />
      </trkpt>
      <trkpt lat="53.8482227324466" lon="-1.83834233842769">
        <ele>92.9189216564992</ele>
        <time>2016-10-09T12:43:16.1709995+01:00</time>
        <name>WPT 101</name>
        <desc />
      </trkpt>
      <trkpt lat="53.848006823061" lon="-1.83819724833576">
        <ele>94.0510932130699</ele>
        <time>2016-10-09T12:43:18.6105018+01:00</time>
        <name>WPT 102</name>
        <desc />
      </trkpt>
      <trkpt lat="53.8481786048098" lon="-1.83761289572744">
        <ele>93.1589216564986</ele>
        <time>2016-10-09T12:43:21.0907175+01:00</time>
        <name>WPT 103</name>
        <desc />
      </trkpt>
      <trkpt lat="53.8482793365528" lon="-1.83766114683978">
        <ele>92.5989216565009</ele>
        <time>2016-10-09T12:43:23.8135175+01:00</time>
        <name>WPT 104</name>
        <desc />
      </trkpt>
      <trkpt lat="53.8483367282997" lon="-1.83756364272493">
        <ele>92.2789216564997</ele>
        <time>2016-10-09T12:43:25.4498291+01:00</time>
        <name>WPT 105</name>
        <desc />
      </trkpt>
      <trkpt lat="53.8486098326663" lon="-1.83746530272717">
        <ele>90.7589216564986</ele>
        <time>2016-10-09T12:43:27.2976061+01:00</time>
        <name>WPT 106</name>
        <desc />
      </trkpt>
      <trkpt lat="53.8486098347343" lon="-1.83746529129752">
        <ele>90.7589100660698</ele>
        <time>2016-10-09T12:43:39.0479016+01:00</time>
        <name>WPT 107</name>
        <desc />
      </trkpt>
      <extensions>
        <drawing v="True" pv="False" pw="4" pc="255|255|255" pt="0" lv="True" lw="4" lc="255|0|0" lt="0" ls="0" lcs="3" fc="255|255|255" ft="120" fs="-1" fsc="0|0|0" xmlns="" />
      </extensions>
    </trkseg>
  </trk>
</gpx>